Time;durP1;ratioP1;P1;durP2;ratioP2;P2;SDS_P1;SDS_P2;PMS_P1;PMS_P2;Temp;Humidity;BMP_temperature;BMP_pressure;BME280_temperature;BME280_humidity;BME280_pressure;Samples;Min_cycle;Max_cycle;Signal;HPM_P1;HPM_P2
2022/05/12 00:00:27;;;;;;;;;;;;;;;18.89;36.27;96681.88;30001;985;1864;-64
2022/05/12 00:00:59;;;;;;;;;;;;;;;18.88;36.06;96682.25;30001;983;1882;-66
2022/05/12 00:01:29;;;;;;;;;;;;;;;18.87;36.42;96683.38;30001;961;1907;-66
2022/05/12 00:02:01;;;;;;;;;;;;;;;18.87;36.15;96686.13;30001;985;1804;-64
2022/05/12 00:02:32;;;;;;;;;;;;;;;18.85;36.56;96685.69;30001;982;1873;-66
2022/05/12 00:03:05;;;;;;;;;;;;;;;18.84;36.66;96682.12;30001;982;1873;-65
2022/05/12 00:03:36;;;;;;;;;;;;;;;18.86;36.01;96684.53;30001;982;1873;-66
2022/05/12 00:04:06;;;;;;;;;;;;;;;18.88;35.91;96683.03;30001;982;1873;-66
2022/05/12 00:04:38;;;;;;;;;;;;;;;18.89;36.77;96686.59;30001;982;1886;-55
2022/05/12 00:05:11;;;;;;;;;;;;;;;18.87;36.45;96680.63;30001;983;1881;-67
2022/05/12 00:05:41;;;;;;;;;;;;;;;18.86;37.19;96690.03;30001;983;1886;-66
2022/05/12 00:06:13;;;;;;;;;;;;;;;18.85;37.10;96689.25;30001;983;1881;-65
2022/05/12 00:06:47;;;;;;;;;;;;;;;18.84;36.68;96692.34;30001;983;1886;-66
2022/05/12 00:07:18;;;;;;;;;;;;;;;18.83;36.49;96694.28;30001;983;1881;-65
2022/05/12 00:07:52;;;;;;;;;;;;;;;18.84;36.70;96692.34;30001;983;1886;-66
2022/05/12 00:08:23;;;;;;;;;;;;;;;18.82;36.94;96686.37;30001;983;1868;-64
2022/05/12 00:08:54;;;;;;;;;;;;;;;18.81;37.34;96693.03;30001;986;1864;-67
2022/05/12 00:09:25;;;;;;;;;;;;;;;18.80;37.40;96692.22;30001;982;1881;-66
2022/05/12 00:09:56;;;;;;;;;;;;;;;18.78;37.28;96693.72;30001;982;1886;-54
2022/05/12 00:10:27;;;;;;;;;;;;;;;18.78;36.89;96685.50;30001;982;1882;-68
2022/05/12 00:10:58;;;;;;;;;;;;;;;18.79;37.01;96689.84;30001;982;1886;-55
2022/05/12 00:11:30;;;;;;;;;;;;;;;18.79;36.96;96695.34;30001;982;1882;-64
2022/05/12 00:12:01;;;;;;;;;;;;;;;18.79;36.95;96692.59;30001;982;1886;-65
2022/05/12 00:12:32;;;;;;;;;;;;;;;18.79;37.69;96689.84;30001;983;1868;-67
2022/05/12 00:13:03;;;;;;;;;;;;;;;18.81;37.64;96690.28;30001;983;1876;-66
2022/05/12 00:13:34;;;;;;;;;;;;;;;18.81;37.72;96688.34;30001;983;1881;-67
2022/05/12 00:14:05;;;;;;;;;;;;;;;18.83;37.27;96685.25;30001;983;1886;-67
2022/05/12 00:14:36;;;;;;;;;;;;;;;18.85;37.08;96688.44;30001;983;1881;-64
2022/05/12 00:15:09;;;;;;;;;;;;;;;18.85;37.01;96688.44;30001;983;1814;-67
2022/05/12 00:15:40;;;;;;;;;;;;;;;18.85;37.12;96694.72;30001;983;1881;-66
2022/05/12 00:16:11;;;;;;;;;;;;;;;18.88;36.86;96693.22;30001;983;1886;-66
2022/05/12 00:16:42;;;;;;;;;;;;;;;18.92;37.18;96688.62;30001;982;1882;-69
2022/05/12 00:17:13;;;;;;;;;;;;;;;18.91;36.93;96693.34;30001;982;1886;-66
2022/05/12 00:17:44;;;;;;;;;;;;;;;18.95;37.02;96688.75;30001;982;1869;-67
2022/05/12 00:18:15;;;;;;;;;;;;;;;18.97;37.04;96699.38;30001;982;1877;-64
2022/05/12 00:18:46;;;;;;;;;;;;;;;18.96;37.38;96689.53;30001;982;1882;-66
2022/05/12 00:19:17;;;;;;;;;;;;;;;19.00;36.80;96691.22;30001;982;1886;-56
2022/05/12 00:19:48;;;;;;;;;;;;;;;18.99;38.15;96705.34;30001;982;1882;-65
2022/05/12 00:20:21;;;;;;;;;;;;;;;18.95;38.01;96705.22;30001;983;1885;-66
2022/05/12 00:20:53;;;;;;;;;;;;;;;18.93;37.70;96707.53;30001;983;1881;-65
2022/05/12 00:21:24;;;;;;;;;;;;;;;18.92;38.38;96710.63;30001;983;1818;-66
2022/05/12 00:21:55;;;;;;;;;;;;;;;18.90;37.98;96701.94;30001;983;1881;-66
2022/05/12 00:22:26;;;;;;;;;;;;;;;18.89;37.61;96697.59;30001;983;1886;-67
2022/05/12 00:23:07;;;;;;;;;;;;;;;18.87;38.51;96706.19;30001;983;1868;-66
2022/05/12 00:23:39;;;;;;;;;;;;;;;18.84;39.43;96704.12;30001;983;1877;-64
2022/05/12 00:24:11;;;;;;;;;;;;;;;18.81;38.60;96709.53;30001;982;1882;-66
2022/05/12 00:24:42;;;;;;;;;;;;;;;18.80;38.16;96705.97;30001;982;1886;-65
2022/05/12 00:25:15;;;;;;;;;;;;;;;18.78;38.76;96715.72;30001;982;1882;-66
2022/05/12 00:25:47;;;;;;;;;;;;;;;18.77;38.21;96703.94;30001;982;1886;-55
2022/05/12 00:26:18;;;;;;;;;;;;;;;18.76;39.06;96710.56;30001;982;1882;-68
2022/05/12 00:26:50;;;;;;;;;;;;;;;18.79;38.04;96707.13;30001;982;1886;-66
2022/05/12 00:27:21;;;;;;;;;;;;;;;18.78;37.94;96701.97;30001;982;1882;-66
2022/05/12 00:27:52;;;;;;;;;;;;;;;18.78;39.17;96702.78;30001;983;1885;-66
2022/05/12 00:28:25;;;;;;;;;;;;;;;18.76;38.35;96710.56;30001;983;1868;-65
2022/05/12 00:28:57;;;;;;;;;;;;;;;18.74;38.25;96705.41;30001;983;1877;-65
2022/05/12 00:29:28;;;;;;;;;;;;;;;18.74;39.65;96704.62;30001;983;1881;-68
2022/05/12 00:29:59;;;;;;;;;;;;;;;18.70;39.35;96704.56;30001;983;1873;-65
2022/05/12 00:30:29;;;;;;;;;;;;;;;18.69;38.60;96700.19;30001;983;1873;-66
2022/05/12 00:31:00;;;;;;;;;;;;;;;18.75;38.02;96701.53;30001;983;1886;-66
2022/05/12 00:31:32;;;;;;;;;;;;;;;18.85;37.95;96707.69;30001;983;1882;-68
2022/05/12 00:32:03;;;;;;;;;;;;;;;18.84;38.19;96697.84;30001;986;1877;-68
2022/05/12 00:32:34;;;;;;;;;;;;;;;18.84;37.94;96706.88;30001;982;1886;-66
2022/05/12 00:33:06;;;;;;;;;;;;;;;18.82;38.01;96705.63;30001;982;1882;-65
2022/05/12 00:33:36;;;;;;;;;;;;;;;18.83;38.11;96698.97;30001;982;1873;-65
2022/05/12 00:34:08;;;;;;;;;;;;;;;18.84;38.21;96703.34;30001;982;1873;-68
2022/05/12 00:34:39;;;;;;;;;;;;;;;18.84;38.14;96715.13;30001;983;1885;-66
2022/05/12 00:35:11;;;;;;;;;;;;;;;18.88;38.29;96706.97;30001;983;1868;-67
2022/05/12 00:35:44;;;;;;;;;;;;;;;18.94;37.88;96711.09;30001;983;1877;-67
2022/05/12 00:36:15;;;;;;;;;;;;;;;18.98;37.94;96704.53;30001;983;1881;-67
2022/05/12 00:36:47;;;;;;;;;;;;;;;19.08;37.46;96704.00;30001;983;1886;-68
2022/05/12 00:37:17;;;;;;;;;;;;;;;19.07;37.75;96701.59;30001;983;1881;-67
2022/05/12 00:37:48;;;;;;;;;;;;;;;19.01;37.75;96709.34;30001;983;1886;-66
2022/05/12 00:38:19;;;;;;;;;;;;;;;19.01;38.13;96708.53;30001;983;1838;-65
2022/05/12 00:38:50;;;;;;;;;;;;;;;19.00;37.87;96706.94;30001;983;1886;-66
2022/05/12 00:39:21;;;;;;;;;;;;;;;18.95;38.33;96715.44;30001;982;1881;-68
2022/05/12 00:39:52;;;;;;;;;;;;;;;18.91;38.16;96714.53;30001;982;1886;-68
2022/05/12 00:40:23;;;;;;;;;;;;;;;18.89;37.99;96716.81;30001;982;1868;-67
2022/05/12 00:40:54;;;;;;;;;;;;;;;18.89;38.16;96716.81;30001;982;1877;-65
2022/05/12 00:41:25;;;;;;;;;;;;;;;18.87;38.78;96717.19;30001;982;1882;-67
2022/05/12 00:41:56;;;;;;;;;;;;;;;18.86;38.62;96714.78;30001;983;1885;-66
2022/05/12 00:42:27;;;;;;;;;;;;;;;18.82;38.26;96716.63;30001;983;1881;-67
2022/05/12 00:43:06;;;;;;;;;;;;;;;18.80;38.47;96718.91;30001;983;1885;-66
2022/05/12 00:43:40;;;;;;;;;;;;;;;18.73;38.23;96725.81;30001;983;1877;-67
2022/05/12 00:44:12;;;;;;;;;;;;;;;18.71;38.49;96719.09;30001;983;1885;-66
2022/05/12 00:44:43;;;;;;;;;;;;;;;18.71;38.58;96714.38;30001;983;1881;-67
2022/05/12 00:45:14;;;;;;;;;;;;;;;18.71;38.70;96716.34;30001;983;1873;-67
2022/05/12 00:45:45;;;;;;;;;;;;;;;18.69;38.53;96722.19;30001;983;1873;-66
2022/05/12 00:46:18;;;;;;;;;;;;;;;18.68;38.80;96711.53;30001;983;1886;-66
2022/05/12 00:46:50;;;;;;;;;;;;;;;18.67;38.38;96713.50;30001;982;1868;-64
2022/05/12 00:47:21;;;;;;;;;;;;;;;18.67;38.89;96716.25;30001;982;1877;-66
2022/05/12 00:47:51;;;;;;;;;;;;;;;18.65;38.56;96720.47;30001;982;1882;-66
2022/05/12 00:48:22;;;;;;;;;;;;;;;18.62;39.43;96713.75;30001;982;1886;-65
2022/05/12 00:48:57;;;;;;;;;;;;;;;18.61;39.30;96725.88;30001;982;1882;-65
2022/05/12 00:49:31;;;;;;;;;;;;;;;18.58;39.24;96723.78;30001;983;1872;-66
2022/05/12 00:50:02;;;;;;;;;;;;;;;18.55;40.07;96729.97;30001;983;1872;-66
2022/05/12 00:50:36;;;;;;;;;;;;;;;18.53;39.97;96726.78;30001;983;1885;-64
2022/05/12 00:51:10;;;;;;;;;;;;;;;18.51;39.68;96726.31;30001;983;1868;-64
2022/05/12 00:51:47;;;;;;;;;;;;;;;18.48;39.69;96726.22;30001;969;1899;-65
2022/05/12 00:52:23;;;;;;;;;;;;;;;18.44;40.65;96728.84;30001;983;1881;-65
2022/05/12 00:52:55;;;;;;;;;;;;;;;18.37;41.00;96728.63;30001;983;1886;-65
2022/05/12 00:53:26;;;;;;;;;;;;;;;18.32;40.72;96726.16;30001;983;1881;-65
2022/05/12 00:54:00;;;;;;;;;;;;;;;18.31;40.68;96727.31;30001;983;1886;-66
2022/05/12 00:54:35;;;;;;;;;;;;;;;18.29;40.38;96724.91;30001;982;1882;-66
2022/05/12 00:55:08;;;;;;;;;;;;;;;18.29;40.83;96729.59;30001;982;1862;-65
2022/05/12 00:55:41;;;;;;;;;;;;;;;18.28;40.22;96731.53;30001;982;1882;-65
2022/05/12 00:56:14;;;;;;;;;;;;;;;18.29;40.68;96727.66;30001;982;1873;-63
2022/05/12 00:56:45;;;;;;;;;;;;;;;18.28;40.31;96728.00;30001;982;1873;-61
2022/05/12 00:57:19;;;;;;;;;;;;;;;18.30;40.54;96728.44;30001;983;1885;-66
2022/05/12 00:57:51;;;;;;;;;;;;;;;18.30;40.46;96725.69;30001;983;1881;-65
2022/05/12 00:58:22;;;;;;;;;;;;;;;18.31;40.28;96730.06;30001;983;1885;-63
2022/05/12 00:58:57;;;;;;;;;;;;;;;18.31;40.08;96727.31;30001;983;1881;-65
2022/05/12 00:59:32;;;;;;;;;;;;;;;18.30;40.29;96734.75;30001;983;1886;-63
2022/05/12 01:00:08;;;;;;;;;;;;;;;18.31;40.43;96732.78;30001;983;1881;-65
2022/05/12 01:00:40;;;;;;;;;;;;;;;18.32;40.64;96726.16;30001;983;1886;-65
2022/05/12 01:01:11;;;;;;;;;;;;;;;18.32;40.23;96735.19;30001;983;1868;-66
2022/05/12 01:01:42;;;;;;;;;;;;;;;18.33;40.65;96733.25;30001;983;1864;-65
2022/05/12 01:02:18;;;;;;;;;;;;;;;18.33;40.51;96733.25;30001;982;1882;-66
2022/05/12 01:02:50;;;;;;;;;;;;;;;18.31;40.85;96736.34;30001;982;1886;-65
2022/05/12 01:03:23;;;;;;;;;;;;;;;18.30;40.90;96736.69;30001;982;1882;-66
2022/05/12 01:03:57;;;;;;;;;;;;;;;18.30;40.55;96733.94;30001;982;1886;-65
2022/05/12 01:04:29;;;;;;;;;;;;;;;18.30;40.71;96734.75;30001;983;1881;-64
2022/05/12 01:05:01;;;;;;;;;;;;;;;18.31;40.85;96735.53;30001;983;1885;-66
2022/05/12 01:05:32;;;;;;;;;;;;;;;18.31;40.81;96730.06;30001;983;1881;-63
2022/05/12 01:06:03;;;;;;;;;;;;;;;18.31;40.81;96736.34;30001;983;1873;-64
2022/05/12 01:06:34;;;;;;;;;;;;;;;18.31;40.74;96735.53;30001;983;1859;-65
2022/05/12 01:07:05;;;;;;;;;;;;;;;18.30;40.55;96734.75;30001;983;1886;-63
2022/05/12 01:07:36;;;;;;;;;;;;;;;18.32;40.86;96737.16;30001;983;1881;-65
2022/05/12 01:08:11;;;;;;;;;;;;;;;18.31;40.66;96735.53;30001;983;1886;-66
2022/05/12 01:08:43;;;;;;;;;;;;;;;18.30;40.88;96744.94;30001;982;1882;-65
2022/05/12 01:09:17;;;;;;;;;;;;;;;18.32;41.09;96734.41;30001;982;1886;-66
2022/05/12 01:09:47;;;;;;;;;;;;;;;18.32;41.24;96737.94;30001;982;1882;-65
2022/05/12 01:10:19;;;;;;;;;;;;;;;18.32;41.16;96745.38;30001;982;1886;-66
2022/05/12 01:10:54;;;;;;;;;;;;;;;18.33;40.89;96733.25;30001;982;1882;-66
2022/05/12 01:11:25;;;;;;;;;;;;;;;18.33;40.73;96733.25;30001;982;1886;-64
2022/05/12 01:11:56;;;;;;;;;;;;;;;18.35;40.93;96741.94;30001;983;1868;-65
2022/05/12 01:12:27;;;;;;;;;;;;;;;18.33;41.01;96734.06;30001;983;1877;-66
2022/05/12 01:12:58;;;;;;;;;;;;;;;18.32;40.92;96737.16;30001;983;1881;-66
2022/05/12 01:13:29;;;;;;;;;;;;;;;18.32;41.00;96737.16;30001;983;1885;-64
2022/05/12 01:14:04;;;;;;;;;;;;;;;18.33;40.94;96738.75;30001;983;1881;-66
2022/05/12 01:14:35;;;;;;;;;;;;;;;18.32;41.40;96729.72;30001;983;1886;-65
2022/05/12 01:15:07;;;;;;;;;;;;;;;18.32;40.88;96740.69;30001;983;1881;-64
2022/05/12 01:15:38;;;;;;;;;;;;;;;18.33;41.01;96738.75;30001;983;1886;-65
2022/05/12 01:16:08;;;;;;;;;;;;;;;18.32;40.96;96735.19;30001;982;1882;-55
2022/05/12 01:16:51;;;;;;;;;;;;;;;18.32;41.03;96735.19;30001;982;1873;-66
2022/05/12 01:17:24;;;;;;;;;;;;;;;18.32;41.65;96739.87;30001;982;1860;-64
2022/05/12 01:18:10;;;;;;;;;;;;;;;18.32;42.41;96740.69;30001;982;1886;-66
2022/05/12 01:18:41;;;;;;;;;;;;;;;18.32;41.38;96742.62;30001;982;1882;-65
2022/05/12 01:19:16;;;;;;;;;;;;;;;18.31;41.62;96747.34;30001;982;1886;-66
2022/05/12 01:19:48;;;;;;;;;;;;;;;18.31;41.40;96746.53;30001;983;1881;-63
2022/05/12 01:20:20;;;;;;;;;;;;;;;18.31;41.92;96750.06;30001;983;1886;-66
2022/05/12 01:20:51;;;;;;;;;;;;;;;18.31;41.33;96747.34;30001;983;1881;-64
2022/05/12 01:21:22;;;;;;;;;;;;;;;18.33;43.05;96755.22;30001;983;1886;-65
2022/05/12 01:21:54;;;;;;;;;;;;;;;18.33;42.09;96749.72;30001;983;1868;-66
2022/05/12 01:22:39;;;;;;;;;;;;;;;18.30;42.02;96751.22;30001;983;1877;-66
2022/05/12 01:23:36;;;;;;;;;;;;;;;18.31;41.44;96743.78;30001;983;1882;-62
2022/05/12 01:24:07;;;;;;;;;;;;;;;18.38;41.88;96743.97;30001;982;1882;-65
2022/05/12 01:24:40;;;;;;;;;;;;;;;18.38;41.90;96749.47;30001;982;1882;-66
2022/05/12 01:25:12;;;;;;;;;;;;;;;18.37;41.50;96747.88;30001;982;1886;-66
2022/05/12 01:25:43;;;;;;;;;;;;;;;18.37;41.57;96750.62;30001;982;1882;-65
2022/05/12 01:26:14;;;;;;;;;;;;;;;18.36;41.41;96749.03;30001;982;1873;-66
2022/05/12 01:26:45;;;;;;;;;;;;;;;18.36;41.07;96754.53;30001;982;1873;-68
2022/05/12 01:27:19;;;;;;;;;;;;;;;18.38;41.69;96754.97;30001;983;1885;-64
2022/05/12 01:27:50;;;;;;;;;;;;;;;18.41;41.60;96751.53;30001;983;1881;-66
2022/05/12 01:28:20;;;;;;;;;;;;;;;18.41;41.39;96751.53;30001;983;1886;-64
2022/05/12 01:28:51;;;;;;;;;;;;;;;18.42;41.42;96759.41;30001;967;1907;-64
2022/05/12 01:29:22;;;;;;;;;;;;;;;18.40;41.36;96755.41;30001;983;1886;-65
2022/05/12 01:29:57;;;;;;;;;;;;;;;18.37;41.94;96756.91;30001;983;1868;-65
2022/05/12 01:30:28;;;;;;;;;;;;;;;18.36;41.22;96749.03;30001;983;1877;-66
2022/05/12 01:30:59;;;;;;;;;;;;;;;18.34;41.56;96749.38;30001;983;1881;-65
2022/05/12 01:31:30;;;;;;;;;;;;;;;18.34;41.38;96751.34;30001;982;1886;-64
2022/05/12 01:32:01;;;;;;;;;;;;;;;18.33;41.45;96764.25;30001;982;1881;-64
2022/05/12 01:32:32;;;;;;;;;;;;;;;18.33;41.44;96752.47;30001;982;1886;-66
2022/05/12 01:33:04;;;;;;;;;;;;;;;18.32;42.13;96759.13;30001;982;1882;-63
2022/05/12 01:33:36;;;;;;;;;;;;;;;18.32;41.88;96757.19;30001;982;1886;-62
2022/05/12 01:34:08;;;;;;;;;;;;;;;18.34;41.86;96757.62;30001;983;1881;-66
2022/05/12 01:34:39;;;;;;;;;;;;;;;18.34;41.64;96759.56;30001;983;1885;-65
2022/05/12 01:35:11;;;;;;;;;;;;;;;18.32;41.66;96754.44;30001;983;1868;-66
2022/05/12 01:35:42;;;;;;;;;;;;;;;18.33;41.43;96755.22;30001;983;1877;-66
2022/05/12 01:36:14;;;;;;;;;;;;;;;18.31;42.81;96752.03;30001;983;1864;-64
2022/05/12 01:36:47;;;;;;;;;;;;;;;18.30;42.35;96761.41;30001;983;1873;-64
2022/05/12 01:37:19;;;;;;;;;;;;;;;18.29;42.00;96759.81;30001;983;1877;-66
2022/05/12 01:37:50;;;;;;;;;;;;;;;18.29;41.73;96759.81;30001;983;1881;-64
2022/05/12 01:38:21;;;;;;;;;;;;;;;18.29;41.83;96765.31;30001;983;1877;-66
2022/05/12 01:38:52;;;;;;;;;;;;;;;18.29;41.52;96754.31;30001;982;1882;-65
2022/05/12 01:39:22;;;;;;;;;;;;;;;18.28;42.01;96763.69;30001;982;1877;-65
2022/05/12 01:39:53;;;;;;;;;;;;;;;18.27;41.79;96762.09;30001;982;1882;-66
2022/05/12 01:40:25;;;;;;;;;;;;;;;18.28;42.19;96769.19;30001;982;1864;-65
2022/05/12 01:40:55;;;;;;;;;;;;;;;18.27;41.76;96764.84;30001;982;1860;-65
2022/05/12 01:41:27;;;;;;;;;;;;;;;18.27;42.01;96767.59;30001;983;1832;-66
2022/05/12 01:41:58;;;;;;;;;;;;;;;18.26;41.79;96760.50;30001;983;1881;-65
2022/05/12 01:42:29;;;;;;;;;;;;;;;18.26;42.33;96774.22;30001;983;1877;-66
2022/05/12 01:43:00;;;;;;;;;;;;;;;18.26;41.72;96761.28;30001;983;1881;-66
2022/05/12 01:43:31;;;;;;;;;;;;;;;18.27;42.84;96764.84;30001;983;1877;-65
2022/05/12 01:44:04;;;;;;;;;;;;;;;18.26;42.45;96768.72;30001;983;1881;-66
2022/05/12 01:44:35;;;;;;;;;;;;;;;18.25;42.41;96769.87;30001;983;1877;-64
2022/05/12 01:45:09;;;;;;;;;;;;;;;18.25;42.20;96775.38;30001;983;1882;-64
2022/05/12 01:45:40;;;;;;;;;;;;;;;18.22;42.35;96771.38;30001;983;1877;-67
2022/05/12 01:46:11;;;;;;;;;;;;;;;18.22;42.53;96771.38;30001;983;1868;-65
2022/05/12 01:46:42;;;;;;;;;;;;;;;18.22;43.22;96784.31;30001;982;1869;-63
2022/05/12 01:47:13;;;;;;;;;;;;;;;18.19;43.14;96782.25;30001;982;1882;-66
2022/05/12 01:47:45;;;;;;;;;;;;;;;18.17;42.82;96779.03;30001;982;1877;-65
2022/05/12 01:48:17;;;;;;;;;;;;;;;18.17;42.99;96779.03;30001;982;1882;-65
2022/05/12 01:48:48;;;;;;;;;;;;;;;18.15;44.59;96786.81;30001;982;1878;-65
2022/05/12 01:49:19;;;;;;;;;;;;;;;18.12;43.59;96784.75;30001;983;1881;-65
2022/05/12 01:49:50;;;;;;;;;;;;;;;18.11;43.29;96777.66;30001;983;1864;-66
2022/05/12 01:50:21;;;;;;;;;;;;;;;18.08;43.13;96782.69;30001;983;1872;-65
2022/05/12 01:50:53;;;;;;;;;;;;;;;18.08;43.63;96771.72;30001;983;1877;-64
2022/05/12 01:51:25;;;;;;;;;;;;;;;18.06;43.35;96774.00;30001;983;1881;-66
2022/05/12 01:51:57;;;;;;;;;;;;;;;18.06;43.91;96782.22;30001;983;1864;-66
2022/05/12 01:52:28;;;;;;;;;;;;;;;18.05;43.66;96783.38;30001;983;1873;-66
2022/05/12 01:52:59;;;;;;;;;;;;;;;18.04;43.95;96787.25;30001;983;1877;-63
2022/05/12 01:53:30;;;;;;;;;;;;;;;18.04;43.89;96792.75;30001;983;1881;-65
2022/05/12 01:54:01;;;;;;;;;;;;;;;18.03;43.96;96787.59;30001;982;1877;-66
2022/05/12 01:54:32;;;;;;;;;;;;;;;18.01;44.52;96793.47;30001;982;1882;-65
2022/05/12 01:55:04;;;;;;;;;;;;;;;17.99;44.42;96793.00;30001;982;1864;-66
2022/05/12 01:55:36;;;;;;;;;;;;;;;17.98;44.18;96793.34;30001;972;1891;-64
2022/05/12 01:56:08;;;;;;;;;;;;;;;17.97;44.07;96798.03;30001;982;1878;-65
2022/05/12 01:56:40;;;;;;;;;;;;;;;17.95;44.54;96794.84;30001;983;1881;-66
2022/05/12 01:57:11;;;;;;;;;;;;;;;17.96;44.42;96795.62;30001;987;1842;-66
2022/05/12 01:57:43;;;;;;;;;;;;;;;17.93;44.37;96794.38;30001;983;1877;-66
2022/05/12 01:58:15;;;;;;;;;;;;;;;17.93;44.97;96797.13;30001;983;1881;-66
2022/05/12 01:58:45;;;;;;;;;;;;;;;17.93;44.40;96791.63;30001;983;1886;-65
2022/05/12 01:59:18;;;;;;;;;;;;;;;17.91;45.36;96799.41;30001;983;1881;-66
2022/05/12 01:59:50;;;;;;;;;;;;;;;17.90;45.56;96806.03;30001;983;1886;-65
2022/05/12 02:00:23;;;;;;;;;;;;;;;17.87;45.65;96803.19;30001;983;1868;-65
2022/05/12 02:00:54;;;;;;;;;;;;;;;17.84;45.37;96801.09;30001;983;1877;-65
2022/05/12 02:01:24;;;;;;;;;;;;;;;17.84;45.18;96806.59;30001;982;1882;-63
2022/05/12 02:01:55;;;;;;;;;;;;;;;17.83;45.19;96807.75;30001;982;1886;-66
2022/05/12 02:02:28;;;;;;;;;;;;;;;17.82;45.29;96812.44;30001;982;1882;-64
2022/05/12 02:03:00;;;;;;;;;;;;;;;17.81;44.62;96804.53;30001;982;1886;-55
2022/05/12 02:03:31;;;;;;;;;;;;;;;17.79;46.65;96812.31;30001;982;1882;-66
2022/05/12 02:04:02;;;;;;;;;;;;;;;17.77;45.28;96809.91;30001;983;1885;-66
2022/05/12 02:04:33;;;;;;;;;;;;;;;17.76;45.57;96802.81;30001;983;1881;-64
2022/05/12 02:05:05;;;;;;;;;;;;;;;17.76;45.35;96802.81;30001;983;1885;-66
2022/05/12 02:05:37;;;;;;;;;;;;;;;17.76;45.20;96808.31;30001;983;1868;-65
2022/05/12 02:06:08;;;;;;;;;;;;;;;17.74;45.42;96810.59;30001;983;1877;-64
2022/05/12 02:06:39;;;;;;;;;;;;;;;17.72;45.67;96802.69;30001;983;1881;-66
2022/05/12 02:07:11;;;;;;;;;;;;;;;17.71;45.67;96808.50;30001;983;1886;-66
2022/05/12 02:07:43;;;;;;;;;;;;;;;17.69;45.51;96803.38;30001;983;1868;-66
2022/05/12 02:08:15;;;;;;;;;;;;;;;17.70;45.76;96812.41;30001;982;1877;-66
2022/05/12 02:08:46;;;;;;;;;;;;;;;17.68;47.23;96817.44;30001;982;1881;-65
2022/05/12 02:09:16;;;;;;;;;;;;;;;17.65;46.18;96815.37;30001;982;1886;-67
2022/05/12 02:09:47;;;;;;;;;;;;;;;17.62;47.25;96821.53;30001;982;1882;-67
2022/05/12 02:10:21;;;;;;;;;;;;;;;17.60;46.54;96819.12;30001;982;1886;-65
2022/05/12 02:10:53;;;;;;;;;;;;;;;17.59;46.45;96823.00;30001;982;1882;-67
2022/05/12 02:11:24;;;;;;;;;;;;;;;17.60;45.56;96821.06;30001;982;1886;-66
2022/05/12 02:11:55;;;;;;;;;;;;;;;17.61;45.92;96822.66;30001;983;1881;-66
2022/05/12 02:12:26;;;;;;;;;;;;;;;17.63;46.24;96825.88;30001;983;1872;-65
2022/05/12 02:12:57;;;;;;;;;;;;;;;17.63;45.96;96820.38;30001;983;1859;-66
2022/05/12 02:13:28;;;;;;;;;;;;;;;17.63;46.03;96823.13;30001;983;1886;-66
2022/05/12 02:13:59;;;;;;;;;;;;;;;17.61;46.13;96819.91;30001;983;1881;-66
2022/05/12 02:14:31;;;;;;;;;;;;;;;17.59;45.58;96819.47;30001;983;1886;-55
2022/05/12 02:15:03;;;;;;;;;;;;;;;17.59;45.70;96825.75;30001;983;1881;-65
2022/05/12 02:15:34;;;;;;;;;;;;;;;17.58;45.50;96828.81;30001;983;1886;-65
2022/05/12 02:16:05;;;;;;;;;;;;;;;17.58;48.53;96834.31;30001;982;1767;-65
2022/05/12 02:16:35;;;;;;;;;;;;;;;17.53;47.94;96838.06;30001;982;1877;-65
2022/05/12 02:17:07;;;;;;;;;;;;;;;17.51;47.05;96823.09;30001;982;1882;-64
2022/05/12 02:17:38;;;;;;;;;;;;;;;17.52;46.47;96825.50;30001;982;1886;-65
2022/05/12 02:18:09;;;;;;;;;;;;;;;17.52;46.79;96824.69;30001;982;1882;-65
2022/05/12 02:18:40;;;;;;;;;;;;;;;17.51;46.45;96818.41;30001;982;1886;-66
2022/05/12 02:19:11;;;;;;;;;;;;;;;17.50;46.18;96818.75;30001;983;1881;-64
2022/05/12 02:19:42;;;;;;;;;;;;;;;17.50;46.17;96821.47;30001;983;1872;-66
2022/05/12 02:20:13;;;;;;;;;;;;;;;17.49;46.44;96819.88;30001;983;1872;-67
2022/05/12 02:20:44;;;;;;;;;;;;;;;17.49;46.08;96825.38;30001;983;1886;-65
2022/05/12 02:21:15;;;;;;;;;;;;;;;17.48;46.36;96823.75;30001;983;1881;-64
2022/05/12 02:21:46;;;;;;;;;;;;;;;17.47;46.35;96822.16;30001;983;1886;-66
2022/05/12 02:22:18;;;;;;;;;;;;;;;17.47;46.69;96827.66;30001;983;1881;-65
2022/05/12 02:22:49;;;;;;;;;;;;;;;17.46;46.86;96824.09;30001;983;1886;-66
2022/05/12 02:23:20;;;;;;;;;;;;;;;17.45;47.62;96829.94;30001;982;1882;-67
2022/05/12 02:23:51;;;;;;;;;;;;;;;17.44;47.34;96823.63;30001;982;1873;-65
2022/05/12 02:24:22;;;;;;;;;;;;;;;17.43;46.83;96828.31;30001;982;1873;-66
2022/05/12 02:24:53;;;;;;;;;;;;;;;17.39;47.53;96826.59;30001;982;1886;-66
2022/05/12 02:25:24;;;;;;;;;;;;;;;17.37;47.32;96829.66;30001;982;1882;-65
2022/05/12 02:25:55;;;;;;;;;;;;;;;17.34;48.44;96835.81;30001;982;1886;-65
2022/05/12 02:26:26;;;;;;;;;;;;;;;17.32;47.68;96834.59;30001;982;1882;-66
2022/05/12 02:26:57;;;;;;;;;;;;;;;17.30;47.64;96834.94;30001;983;1885;-66
2022/05/12 02:27:28;;;;;;;;;;;;;;;17.30;47.37;96834.94;30001;983;1881;-67
2022/05/12 02:27:58;;;;;;;;;;;;;;;17.30;47.39;96829.44;30001;983;1886;-65
2022/05/12 02:28:29;;;;;;;;;;;;;;;17.31;47.27;96833.78;30001;983;1881;-64
2022/05/12 02:29:00;;;;;;;;;;;;;;;17.32;48.76;96837.34;30001;983;1873;-66
2022/05/12 02:29:31;;;;;;;;;;;;;;;17.25;49.12;96840.63;30001;983;1873;-64
2022/05/12 02:30:03;;;;;;;;;;;;;;;17.22;48.51;96837.75;30001;983;1886;-66
2022/05/12 02:30:35;;;;;;;;;;;;;;;17.21;47.98;96838.87;30001;983;1882;-66
2022/05/12 02:31:05;;;;;;;;;;;;;;;17.20;48.04;96840.81;30001;982;1886;-66
2022/05/12 02:31:36;;;;;;;;;;;;;;;17.21;48.15;96831.44;30001;982;1882;-65
2022/05/12 02:32:08;;;;;;;;;;;;;;;17.20;48.88;96840.00;30001;982;1873;-65
2022/05/12 02:32:38;;;;;;;;;;;;;;;17.20;48.35;96840.81;30001;982;1873;-67
2022/05/12 02:33:09;;;;;;;;;;;;;;;17.19;48.45;96839.22;30001;982;1886;-66
2022/05/12 02:33:40;;;;;;;;;;;;;;;17.19;48.11;96832.94;30001;982;1869;-66
2022/05/12 02:34:11;;;;;;;;;;;;;;;17.19;48.34;96844.69;30001;983;1877;-66
2022/05/12 02:34:42;;;;;;;;;;;;;;;17.17;48.41;96841.50;30001;957;1894;-64
2022/05/12 02:35:13;;;;;;;;;;;;;;;17.17;48.56;96849.72;30001;985;1877;-66
2022/05/12 02:35:44;;;;;;;;;;;;;;;17.15;48.67;96843.75;30001;983;1881;-67
2022/05/12 02:36:15;;;;;;;;;;;;;;;17.17;48.50;96840.69;30001;983;1885;-65
2022/05/12 02:36:59;;;;;;;;;;;;;;;17.16;48.78;96856.34;30001;983;1868;-65
2022/05/12 02:37:30;;;;;;;;;;;;;;;17.14;49.31;96853.13;30001;983;1864;-66
2022/05/12 02:38:02;;;;;;;;;;;;;;;17.14;49.28;96850.38;30001;983;1882;-66
2022/05/12 02:38:33;;;;;;;;;;;;;;;17.14;49.91;96855.88;30001;982;1886;-65
2022/05/12 02:39:04;;;;;;;;;;;;;;;17.12;49.48;96849.91;30001;982;1882;-67
2022/05/12 02:39:36;;;;;;;;;;;;;;;17.10;49.11;96852.19;30001;982;1886;-65
2022/05/12 02:40:09;;;;;;;;;;;;;;;17.08;49.22;96858.00;30001;982;1882;-65
2022/05/12 02:40:39;;;;;;;;;;;;;;;17.08;49.70;96848.97;30001;982;1886;-66
2022/05/12 02:41:10;;;;;;;;;;;;;;;17.06;49.82;96856.72;30001;983;1881;-66
2022/05/12 02:41:41;;;;;;;;;;;;;;;17.05;49.43;96857.88;30001;983;1886;-64
2022/05/12 02:42:15;;;;;;;;;;;;;;;17.05;49.20;96860.63;30001;983;1868;-66
2022/05/12 02:42:46;;;;;;;;;;;;;;;17.03;49.77;96857.41;30001;983;1877;-54
2022/05/12 02:43:25;;;;;;;;;;;;;;;17.02;50.00;96861.28;30001;983;1881;-65
2022/05/12 02:43:56;;;;;;;;;;;;;;;17.00;51.06;96861.63;30001;983;1886;-64
2022/05/12 02:44:28;;;;;;;;;;;;;;;16.97;50.26;96858.78;30001;983;1882;-66
2022/05/12 02:44:59;;;;;;;;;;;;;;;16.96;50.13;96868.13;30001;983;1886;-65
2022/05/12 02:45:30;;;;;;;;;;;;;;;16.94;49.99;96862.97;30001;983;1882;-65
2022/05/12 02:46:05;;;;;;;;;;;;;;;16.94;50.01;96862.19;30001;982;1873;-66
2022/05/12 02:46:35;;;;;;;;;;;;;;;16.93;50.19;96861.37;30001;982;1873;-64
2022/05/12 02:47:09;;;;;;;;;;;;;;;16.93;50.03;96863.31;30001;982;1886;-65
2022/05/12 02:47:40;;;;;;;;;;;;;;;16.92;49.81;96862.50;30001;982;1882;-66
2022/05/12 02:48:11;;;;;;;;;;;;;;;16.93;50.32;96863.31;30001;982;1886;-66
2022/05/12 02:48:43;;;;;;;;;;;;;;;16.93;50.11;96866.06;30001;983;1881;-54
2022/05/12 02:49:14;;;;;;;;;;;;;;;16.92;49.85;96865.25;30001;983;1886;-66
2022/05/12 02:49:45;;;;;;;;;;;;;;;16.90;51.99;96874.94;30001;983;1868;-65
2022/05/12 02:50:17;;;;;;;;;;;;;;;16.87;51.32;96862.69;30001;983;1877;-65
2022/05/12 02:50:48;;;;;;;;;;;;;;;16.86;51.35;96868.50;30001;983;1881;-66